Time;durP1;ratioP1;P1;durP2;ratioP2;P2;SDS_P1;SDS_P2;PMS_P1;PMS_P2;Temp;Humidity;BMP_temperature;BMP_pressure;BME280_temperature;BME280_humidity;BME280_pressure;Samples;Min_cycle;Max_cycle;Signal;HPM_P1;HPM_P2
2021/08/22 00:00:06;;;;;;;19.25;17.23;;;18.70;99.90;;;;;;5082408;28;20032;-76
2021/08/22 00:02:40;;;;;;;16.90;14.68;;;18.70;99.90;;;;;;5073080;28;20383;-76
2021/08/22 00:05:07;;;;;;;14.52;13.13;;;18.70;99.90;;;;;;5039740;28;20036;-76
2021/08/22 00:07:34;;;;;;;14.82;13.43;;;18.60;99.90;;;;;;5077375;28;20032;-76
2021/08/22 00:10:00;;;;;;;14.02;12.50;;;18.70;99.90;;;;;;5078969;28;20039;-76
2021/08/22 00:12:27;;;;;;;13.77;12.48;;;18.70;99.90;;;;;;5045486;28;20044;-75
2021/08/22 00:14:53;;;;;;;14.60;13.05;;;18.70;99.90;;;;;;5078457;28;20039;-76
2021/08/22 00:17:21;;;;;;;15.38;13.88;;;18.70;99.90;;;;;;5061666;28;20036;-76
2021/08/22 00:19:47;;;;;;;14.00;12.57;;;18.70;99.90;;;;;;5077770;28;20036;-76
2021/08/22 00:22:14;;;;;;;13.75;12.32;;;18.70;99.90;;;;;;5080779;28;20028;-75
2021/08/22 00:24:40;;;;;;;14.60;12.85;;;18.70;99.90;;;;;;5079842;28;20040;-76
2021/08/22 00:27:07;;;;;;;14.35;12.88;;;18.70;99.90;;;;;;5046897;28;20051;-75
2021/08/22 00:29:34;;;;;;;15.02;13.52;;;18.70;99.90;;;;;;5081007;28;20039;-76
2021/08/22 00:32:01;;;;;;;14.02;12.73;;;18.60;99.90;;;;;;5067146;28;20047;-75
2021/08/22 00:34:28;;;;;;;14.27;12.98;;;18.60;99.90;;;;;;5065396;28;20049;-75
2021/08/22 00:36:55;;;;;;;13.30;12.10;;;18.60;99.90;;;;;;5055194;28;20032;-76
2021/08/22 00:39:26;;;;;;;13.85;12.60;;;18.70;99.90;;;;;;5078527;28;20032;-76
2021/08/22 00:41:53;;;;;;;14.55;13.05;;;18.60;99.90;;;;;;5055065;28;20043;-75
2021/08/22 00:44:20;;;;;;;14.68;13.23;;;18.70;99.90;;;;;;5073430;28;20025;-75
2021/08/22 00:46:48;;;;;;;14.70;13.20;;;18.70;99.90;;;;;;5068740;28;20035;-75
2021/08/22 00:49:14;;;;;;;14.60;13.13;;;18.70;99.90;;;;;;5055145;28;20049;-76
2021/08/22 00:51:43;;;;;;;14.95;13.43;;;18.70;99.90;;;;;;5053118;28;20781;-75
2021/08/22 00:54:10;;;;;;;14.63;13.00;;;18.70;99.90;;;;;;5074302;28;20043;-75
2021/08/22 00:56:37;;;;;;;14.43;13.02;;;18.70;99.90;;;;;;5066351;28;20056;-76
2021/08/22 00:59:06;;;;;;;13.88;12.50;;;18.70;99.90;;;;;;5075474;28;20036;-75
2021/08/22 01:01:34;;;;;;;15.40;13.85;;;18.70;99.90;;;;;;5035183;28;20052;-75
2021/08/22 01:04:08;;;;;;;14.55;13.05;;;18.70;99.90;;;;;;5058666;28;20035;-75
2021/08/22 01:06:46;;;;;;;15.50;13.90;;;18.70;99.90;;;;;;5073169;28;20028;-75
2021/08/22 01:09:20;;;;;;;16.90;15.30;;;18.70;99.90;;;;;;5049558;28;20032;-76
2021/08/22 01:11:48;;;;;;;15.85;14.32;;;18.70;99.90;;;;;;5054303;28;20033;-76
2021/08/22 01:14:22;;;;;;;16.60;14.98;;;18.70;99.90;;;;;;5025637;28;20511;-75
2021/08/22 01:16:55;;;;;;;16.08;14.55;;;18.70;99.90;;;;;;5057923;28;20044;-75
2021/08/22 01:19:43;;;;;;;16.25;14.75;;;18.70;99.90;;;;;;5075155;28;20098;-75
2021/08/22 01:22:10;;;;;;;16.88;14.93;;;18.70;99.90;;;;;;5055643;28;20029;-75
2021/08/22 01:24:39;;;;;;;17.35;15.65;;;18.80;99.90;;;;;;5069278;28;20040;-75
2021/08/22 01:27:07;;;;;;;16.45;14.85;;;18.70;99.90;;;;;;5047671;28;20024;-76
2021/08/22 01:30:05;;;;;;;18.55;16.73;;;18.80;99.90;;;;;;5065971;28;20054;-76
2021/08/22 01:32:37;;;;;;;17.65;15.85;;;18.70;99.90;;;;;;5043837;28;20064;-75
2021/08/22 01:35:06;;;;;;;18.05;16.25;;;18.70;99.90;;;;;;5074393;28;20507;-76
2021/08/22 01:37:35;;;;;;;15.02;13.50;;;18.70;99.90;;;;;;5062754;28;20063;-77
2021/08/22 01:40:03;;;;;;;18.02;16.27;;;18.60;99.90;;;;;;5084700;28;20107;-78
2021/08/22 01:42:30;;;;;;;18.08;16.35;;;18.60;99.90;;;;;;5050601;28;20114;-76
2021/08/22 01:45:00;;;;;;;20.48;17.80;;;18.60;99.90;;;;;;5067298;28;20040;-75
2021/08/22 01:47:26;;;;;;;17.98;16.17;;;18.60;99.90;;;;;;5066240;28;20032;-78
2021/08/22 01:49:54;;;;;;;17.33;15.68;;;18.60;99.90;;;;;;5049129;28;20481;-78
2021/08/22 01:52:21;;;;;;;17.33;15.52;;;18.60;99.90;;;;;;5084706;28;20039;-78
2021/08/22 01:54:47;;;;;;;18.45;16.48;;;18.60;99.90;;;;;;5085458;28;20040;-77
2021/08/22 01:57:14;;;;;;;17.00;15.30;;;18.60;99.90;;;;;;5067967;28;20028;-78
2021/08/22 01:59:40;;;;;;;18.88;16.88;;;18.60;99.90;;;;;;5049737;28;20044;-78
2021/08/22 02:02:07;;;;;;;16.73;15.02;;;18.50;99.90;;;;;;5084642;28;20028;-78
2021/08/22 02:04:45;;;;;;;16.65;14.85;;;18.50;99.90;;;;;;5084118;28;20032;-77
2021/08/22 02:07:15;;;;;;;15.32;13.82;;;18.50;99.90;;;;;;5082346;28;20028;-78
2021/08/22 02:09:54;;;;;;;15.32;13.73;;;18.50;99.90;;;;;;5083528;28;20409;-77
2021/08/22 02:12:21;;;;;;;13.48;12.15;;;18.50;99.90;;;;;;5084078;28;20044;-78
2021/08/22 02:14:57;;;;;;;13.90;12.48;;;18.40;99.90;;;;;;5083457;28;20031;-78
2021/08/22 02:17:31;;;;;;;13.13;11.73;;;18.40;99.90;;;;;;5081195;28;20910;-78
2021/08/22 02:20:01;;;;;;;17.38;15.57;;;18.30;99.90;;;;;;5083153;28;20040;-78
2021/08/22 02:22:28;;;;;;;17.17;14.30;;;18.30;99.90;;;;;;5065188;28;20043;-78
2021/08/22 02:24:56;;;;;;;16.00;14.18;;;18.30;99.90;;;;;;5084002;28;20040;-78
2021/08/22 02:27:26;;;;;;;16.08;14.32;;;18.30;99.90;;;;;;5079271;28;20940;-78
2021/08/22 02:29:53;;;;;;;16.52;14.73;;;18.30;99.90;;;;;;5082896;28;20024;-77
2021/08/22 02:32:20;;;;;;;18.52;15.10;;;18.40;99.90;;;;;;5047657;28;20063;-78
2021/08/22 02:34:46;;;;;;;18.00;16.05;;;18.40;99.90;;;;;;5066516;28;20059;-78
2021/08/22 02:37:13;;;;;;;17.35;15.48;;;18.40;99.90;;;;;;5080757;28;20032;-77
2021/08/22 02:39:39;;;;;;;20.27;18.17;;;18.40;99.90;;;;;;5065398;28;20051;-78
2021/08/22 02:42:06;;;;;;;19.33;17.35;;;18.40;99.90;;;;;;5082559;28;20050;-77
2021/08/22 02:44:33;;;;;;;21.05;16.67;;;18.40;99.90;;;;;;5049462;28;20031;-77
2021/08/22 02:46:59;;;;;;;22.13;19.77;;;18.40;99.90;;;;;;5065924;28;20054;-78
2021/08/22 02:49:26;;;;;;;19.73;17.83;;;18.30;99.90;;;;;;5049147;28;20048;-78
2021/08/22 02:51:52;;;;;;;21.02;18.75;;;18.30;99.90;;;;;;5065401;28;20178;-78
2021/08/22 02:54:19;;;;;;;21.40;19.05;;;18.30;99.90;;;;;;5083780;28;20028;-78
2021/08/22 02:56:45;;;;;;;24.17;21.52;;;18.20;99.90;;;;;;5082912;28;20051;-78
2021/08/22 02:59:12;;;;;;;22.88;20.23;;;18.10;99.90;;;;;;5048332;28;20047;-78
2021/08/22 03:01:38;;;;;;;24.35;21.27;;;18.10;99.90;;;;;;5079981;28;20036;-78
2021/08/22 03:04:05;;;;;;;23.38;20.88;;;18.10;99.90;;;;;;5065623;28;20040;-78
2021/08/22 03:06:31;;;;;;;24.27;21.67;;;18.10;99.90;;;;;;5079371;28;20029;-77
2021/08/22 03:09:00;;;;;;;21.33;19.02;;;18.10;99.90;;;;;;5082143;28;20074;-77
2021/08/22 03:11:26;;;;;;;22.88;20.48;;;18.10;99.90;;;;;;5049792;28;21008;-77
2021/08/22 03:13:53;;;;;;;20.90;18.65;;;18.10;99.90;;;;;;5083584;28;20047;-77
2021/08/22 03:16:19;;;;;;;21.30;19.00;;;18.10;99.90;;;;;;5063882;28;20040;-76
2021/08/22 03:18:46;;;;;;;23.38;20.88;;;18.00;99.90;;;;;;5080084;28;20040;-77
2021/08/22 03:21:12;;;;;;;21.05;18.98;;;18.00;99.90;;;;;;5084383;28;20043;-77
2021/08/22 03:23:39;;;;;;;23.27;20.58;;;18.00;99.90;;;;;;5083629;28;20036;-77
2021/08/22 03:26:05;;;;;;;19.98;17.90;;;18.00;99.90;;;;;;5065427;28;20478;-77
2021/08/22 03:28:31;;;;;;;22.58;20.17;;;18.00;99.90;;;;;;5081881;28;20048;-78
2021/08/22 03:30:59;;;;;;;24.70;20.90;;;18.10;99.90;;;;;;5084518;28;20035;-78
2021/08/22 03:33:25;;;;;;;22.90;20.30;;;18.10;99.90;;;;;;5080401;28;20146;-78
2021/08/22 03:35:52;;;;;;;26.17;23.42;;;18.10;99.90;;;;;;5079397;28;20051;-78
2021/08/22 03:38:19;;;;;;;26.25;23.48;;;18.10;99.90;;;;;;5081143;28;20032;-78
2021/08/22 03:40:46;;;;;;;27.35;23.20;;;18.10;99.90;;;;;;5083359;28;20055;-77
2021/08/22 03:43:12;;;;;;;22.80;20.05;;;18.10;99.90;;;;;;5064748;28;20816;-77
2021/08/22 03:45:38;;;;;;;20.85;18.65;;;18.10;99.90;;;;;;5082268;28;20031;-77
2021/08/22 03:48:05;;;;;;;28.63;25.40;;;18.10;99.90;;;;;;5081438;28;20120;-77
2021/08/22 03:50:32;;;;;;;27.95;23.80;;;18.10;99.90;;;;;;5065455;28;20047;-77
2021/08/22 03:52:58;;;;;;;27.98;23.38;;;18.10;99.90;;;;;;5064236;28;20028;-77
2021/08/22 03:55:25;;;;;;;29.95;24.33;;;18.10;99.90;;;;;;5065250;28;20382;-77
2021/08/22 03:57:51;;;;;;;29.52;23.15;;;18.10;99.90;;;;;;5062154;28;20040;-78
2021/08/22 04:00:17;;;;;;;26.63;22.60;;;18.00;99.90;;;;;;5081040;28;20032;-77
2021/08/22 04:02:44;;;;;;;23.65;21.00;;;18.10;99.90;;;;;;5048437;28;20062;-77
2021/08/22 04:05:30;;;;;;;24.67;21.95;;;18.10;99.90;;;;;;5075644;28;20055;-77
2021/08/22 04:07:59;;;;;;;26.55;21.63;;;18.00;99.90;;;;;;5066079;28;20063;-77
2021/08/22 04:10:26;;;;;;;23.90;19.65;;;18.00;99.90;;;;;;5052495;28;20048;-77
2021/08/22 04:12:54;;;;;;;25.35;20.88;;;18.00;99.90;;;;;;5069876;28;20150;-77
2021/08/22 04:15:21;;;;;;;29.83;24.15;;;18.00;99.90;;;;;;5051798;28;20056;-76
2021/08/22 04:17:47;;;;;;;26.02;22.30;;;18.00;99.90;;;;;;5062538;28;20051;-76
2021/08/22 04:20:14;;;;;;;28.35;21.95;;;18.00;99.90;;;;;;5067632;28;20055;-75
2021/08/22 04:22:41;;;;;;;25.65;22.30;;;17.90;99.90;;;;;;5051594;28;20044;-76
2021/08/22 04:25:10;;;;;;;28.75;22.67;;;17.90;99.90;;;;;;5086844;28;20040;-78
2021/08/22 04:27:41;;;;;;;27.23;23.02;;;17.90;99.90;;;;;;5081828;28;20035;-77
2021/08/22 04:30:12;;;;;;;37.15;28.40;;;17.90;99.90;;;;;;5087609;28;20024;-77
2021/08/22 04:32:39;;;;;;;33.75;24.80;;;17.90;99.90;;;;;;5068457;28;20035;-77
2021/08/22 04:35:06;;;;;;;35.80;26.13;;;17.90;99.90;;;;;;5065859;28;20048;-75
2021/08/22 04:37:33;;;;;;;30.30;24.40;;;17.90;99.90;;;;;;5046574;28;20040;-75
2021/08/22 04:39:59;;;;;;;35.53;28.15;;;17.90;99.90;;;;;;5085945;28;20367;-76
2021/08/22 04:42:26;;;;;;;33.83;26.73;;;17.90;99.90;;;;;;5051885;28;20054;-75
2021/08/22 04:44:52;;;;;;;33.55;25.95;;;17.90;99.90;;;;;;5068247;28;20506;-76
2021/08/22 04:47:19;;;;;;;29.90;23.33;;;17.90;99.90;;;;;;5063032;28;20032;-75
2021/08/22 04:49:45;;;;;;;34.80;23.98;;;17.80;99.90;;;;;;5066877;28;20031;-75
2021/08/22 04:52:12;;;;;;;34.65;27.40;;;17.80;99.90;;;;;;5064375;28;20051;-76
2021/08/22 04:54:38;;;;;;;32.53;25.33;;;17.80;99.90;;;;;;5086134;28;20036;-76
2021/08/22 04:57:04;;;;;;;28.27;21.42;;;17.80;99.90;;;;;;5064172;28;20031;-76
2021/08/22 04:59:31;;;;;;;36.65;27.83;;;17.80;99.90;;;;;;5066622;28;20395;-76
2021/08/22 05:01:57;;;;;;;38.05;28.95;;;17.80;99.90;;;;;;5085393;28;20386;-75
2021/08/22 05:04:24;;;;;;;39.72;29.60;;;17.80;99.90;;;;;;5068425;28;20028;-75
2021/08/22 05:06:50;;;;;;;41.33;29.27;;;17.90;99.90;;;;;;5084644;28;20383;-75
2021/08/22 05:09:16;;;;;;;37.00;27.10;;;17.80;99.90;;;;;;5066748;28;20054;-76
2021/08/22 05:11:43;;;;;;;35.58;26.60;;;17.80;99.90;;;;;;5069203;28;20035;-76
2021/08/22 05:14:09;;;;;;;37.47;26.20;;;17.80;99.90;;;;;;5085863;28;20810;-75
2021/08/22 05:16:35;;;;;;;26.75;20.83;;;17.90;99.90;;;;;;5083408;28;20040;-76
2021/08/22 05:19:02;;;;;;;31.38;23.25;;;17.90;99.90;;;;;;5032687;28;20036;-76
2021/08/22 05:21:28;;;;;;;36.60;26.67;;;17.90;99.90;;;;;;5050931;28;20043;-75
2021/08/22 05:23:55;;;;;;;38.72;27.30;;;17.90;99.90;;;;;;5084897;28;20050;-76
2021/08/22 05:26:21;;;;;;;38.90;28.40;;;17.90;99.90;;;;;;5065916;28;20032;-76
2021/08/22 05:28:47;;;;;;;37.25;27.77;;;17.90;99.90;;;;;;5049251;28;20059;-75
2021/08/22 05:31:14;;;;;;;40.70;26.63;;;18.00;99.90;;;;;;5069751;28;20036;-76
2021/08/22 05:33:40;;;;;;;38.97;30.02;;;18.00;99.90;;;;;;5084813;28;20036;-75
2021/08/22 05:36:21;;;;;;;40.63;28.90;;;18.00;99.90;;;;;;5084397;28;20047;-76
2021/08/22 05:38:49;;;;;;;41.22;31.42;;;18.00;99.90;;;;;;5065349;28;20036;-76
2021/08/22 05:41:15;;;;;;;39.30;27.33;;;18.00;99.90;;;;;;5049455;28;20595;-76
2021/08/22 05:43:43;;;;;;;47.83;33.95;;;18.00;99.90;;;;;;5066964;28;20040;-76
2021/08/22 05:46:09;;;;;;;42.90;31.55;;;18.00;99.90;;;;;;5066888;28;20043;-76
2021/08/22 05:48:37;;;;;;;43.72;31.17;;;18.10;99.90;;;;;;5031768;28;20040;-75
2021/08/22 05:51:04;;;;;;;34.47;26.67;;;18.20;99.90;;;;;;5084590;28;20063;-75
2021/08/22 05:53:31;;;;;;;41.47;30.50;;;18.20;99.90;;;;;;5049578;28;20051;-75
2021/08/22 05:55:58;;;;;;;41.90;31.20;;;18.20;99.90;;;;;;5083979;28;20028;-76
2021/08/22 05:58:25;;;;;;;38.55;28.90;;;18.20;99.90;;;;;;5065048;28;20490;-76
2021/08/22 06:00:51;;;;;;;41.80;30.38;;;18.30;99.90;;;;;;5065954;28;20055;-76
2021/08/22 06:03:17;;;;;;;36.88;27.42;;;18.30;99.90;;;;;;5083837;28;20365;-75
2021/08/22 06:05:44;;;;;;;43.45;31.40;;;18.40;99.90;;;;;;5065865;28;20032;-76
2021/08/22 06:08:10;;;;;;;43.28;33.97;;;18.40;99.90;;;;;;5082182;28;20043;-75
2021/08/22 06:10:36;;;;;;;47.53;35.65;;;18.40;99.90;;;;;;5064193;28;20612;-75
2021/08/22 06:13:03;;;;;;;45.50;31.35;;;18.50;99.90;;;;;;5084198;28;20035;-75
2021/08/22 06:15:29;;;;;;;53.03;37.97;;;18.60;99.90;;;;;;5065880;28;20055;-76
2021/08/22 06:17:55;;;;;;;55.55;36.25;;;18.60;99.90;;;;;;5048438;28;20040;-76
2021/08/22 06:20:22;;;;;;;54.08;38.08;;;18.60;99.90;;;;;;5083716;28;20040;-76
2021/08/22 06:22:48;;;;;;;50.70;35.72;;;18.70;99.90;;;;;;5084015;28;20039;-75
2021/08/22 06:25:15;;;;;;;49.60;36.50;;;18.70;99.90;;;;;;5066570;28;20139;-75
2021/08/22 06:27:41;;;;;;;49.33;36.63;;;18.70;99.90;;;;;;5081077;28;20031;-76
2021/08/22 06:30:08;;;;;;;45.65;34.25;;;18.70;99.90;;;;;;5081259;28;20028;-75
2021/08/22 06:32:34;;;;;;;49.00;36.17;;;18.80;99.90;;;;;;5067322;28;20052;-75
2021/08/22 06:35:01;;;;;;;47.75;34.78;;;18.80;99.90;;;;;;5065275;28;20059;-75
2021/08/22 06:37:27;;;;;;;53.03;35.70;;;18.80;99.90;;;;;;5050011;28;20036;-75
2021/08/22 06:39:53;;;;;;;46.28;34.15;;;18.90;99.90;;;;;;5065243;28;20036;-76
2021/08/22 06:42:20;;;;;;;42.97;32.67;;;18.90;99.90;;;;;;5065768;28;20040;-76
2021/08/22 06:44:46;;;;;;;47.17;32.22;;;18.90;99.90;;;;;;5032931;28;20051;-76
2021/08/22 06:47:13;;;;;;;38.78;30.95;;;18.90;99.90;;;;;;5065200;28;20079;-75
2021/08/22 06:49:39;;;;;;;36.78;28.35;;;18.90;99.90;;;;;;5047677;28;20489;-75
2021/08/22 06:52:07;;;;;;;43.47;32.58;;;18.90;99.90;;;;;;5083960;28;20902;-77
2021/08/22 06:54:33;;;;;;;44.72;32.63;;;18.80;99.90;;;;;;5084203;28;20402;-78
2021/08/22 06:57:00;;;;;;;36.20;28.10;;;18.90;99.90;;;;;;5065504;28;20040;-75
2021/08/22 06:59:26;;;;;;;40.50;30.23;;;18.80;99.90;;;;;;5063565;28;20051;-76
2021/08/22 07:01:52;;;;;;;37.00;29.85;;;18.90;99.90;;;;;;5048990;28;20039;-77
2021/08/22 07:04:19;;;;;;;31.27;24.70;;;18.80;99.90;;;;;;5085039;28;20498;-78
2021/08/22 07:06:45;;;;;;;37.85;28.25;;;18.90;99.90;;;;;;5084324;28;20024;-75
2021/08/22 07:09:12;;;;;;;40.05;28.25;;;18.90;99.90;;;;;;5046705;28;20048;-75
2021/08/22 07:11:38;;;;;;;35.88;27.45;;;18.90;99.90;;;;;;5038582;28;20040;-76
2021/08/22 07:14:04;;;;;;;30.60;24.77;;;19.00;99.90;;;;;;5065253;28;20043;-76
2021/08/22 07:16:31;;;;;;;29.85;22.50;;;19.10;99.90;;;;;;5048396;28;20045;-75
2021/08/22 07:18:57;;;;;;;29.98;23.13;;;19.10;99.90;;;;;;5079697;28;20501;-76
2021/08/22 07:21:24;;;;;;;34.33;28.83;;;19.00;99.90;;;;;;5051634;28;20032;-76
2021/08/22 07:23:51;;;;;;;37.65;29.00;;;19.00;99.90;;;;;;5031492;28;20047;-75
2021/08/22 07:26:17;;;;;;;33.22;29.25;;;19.00;99.90;;;;;;5043800;28;20036;-75
2021/08/22 07:28:43;;;;;;;39.42;30.45;;;18.90;99.90;;;;;;5063697;28;20518;-76
2021/08/22 07:31:10;;;;;;;35.05;29.02;;;18.90;99.90;;;;;;5082568;28;20039;-76
2021/08/22 07:33:36;;;;;;;37.90;31.20;;;18.80;99.90;;;;;;5047171;28;20028;-75
2021/08/22 07:36:03;;;;;;;36.38;28.05;;;18.80;99.90;;;;;;5064060;28;20438;-75
2021/08/22 07:38:30;;;;;;;40.33;30.20;;;18.80;99.90;;;;;;5044498;28;20063;-76
2021/08/22 07:40:56;;;;;;;40.20;32.47;;;18.80;99.90;;;;;;5064582;28;20040;-75
2021/08/22 07:43:23;;;;;;;34.92;27.98;;;18.80;99.90;;;;;;5078507;28;20816;-75
2021/08/22 07:45:49;;;;;;;43.33;33.60;;;18.90;99.90;;;;;;5058953;28;20039;-76
2021/08/22 07:48:16;;;;;;;32.58;28.08;;;18.90;99.90;;;;;;5059982;28;20051;-76
2021/08/22 07:50:42;;;;;;;33.65;29.52;;;19.00;99.90;;;;;;5034056;28;20051;-76
2021/08/22 07:53:09;;;;;;;30.27;24.60;;;19.00;99.90;;;;;;5030031;28;20667;-77
2021/08/22 07:55:36;;;;;;;37.90;31.95;;;19.00;99.90;;;;;;5063259;28;20044;-81
2021/08/22 07:58:02;;;;;;;32.78;27.30;;;19.10;99.90;;;;;;5083332;28;20047;-80
2021/08/22 08:00:29;;;;;;;31.15;27.58;;;19.20;99.90;;;;;;5068441;28;20040;-81
2021/08/22 08:02:55;;;;;;;29.88;26.67;;;19.30;99.90;;;;;;5067734;28;20039;-81
2021/08/22 08:05:21;;;;;;;32.90;26.10;;;19.30;99.90;;;;;;5085877;28;20056;-82
2021/08/22 08:07:48;;;;;;;27.38;23.75;;;19.30;99.90;;;;;;5066386;28;20040;-82
2021/08/22 08:10:14;;;;;;;29.10;22.98;;;19.40;99.90;;;;;;5083945;28;20032;-81
2021/08/22 08:12:41;;;;;;;26.52;23.73;;;19.40;99.90;;;;;;5050080;28;20040;-78
2021/08/22 08:15:08;;;;;;;24.75;21.88;;;19.50;99.90;;;;;;5052592;28;20043;-75
2021/08/22 08:17:35;;;;;;;26.20;23.50;;;19.60;99.90;;;;;;5079582;28;20040;-74
2021/08/22 08:20:02;;;;;;;24.40;21.33;;;19.80;99.90;;;;;;5081514;28;20032;-74
2021/08/22 08:22:29;;;;;;;24.23;21.20;;;20.00;99.90;;;;;;5014495;28;20051;-76
2021/08/22 08:24:57;;;;;;;22.65;19.88;;;20.20;99.90;;;;;;5064156;28;20035;-74
2021/08/22 08:27:23;;;;;;;17.85;16.02;;;20.30;99.90;;;;;;5080592;28;20028;-74
2021/08/22 08:29:51;;;;;;;22.33;19.58;;;20.30;99.90;;;;;;5080664;28;20032;-74
2021/08/22 08:32:18;;;;;;;26.42;23.52;;;20.30;99.90;;;;;;5081574;28;20028;-74
2021/08/22 08:34:44;;;;;;;20.67;18.38;;;20.40;99.90;;;;;;5047327;28;20095;-74
2021/08/22 08:37:10;;;;;;;21.08;18.13;;;20.40;99.90;;;;;;5081058;28;20048;-75
2021/08/22 08:39:39;;;;;;;24.55;20.20;;;20.50;99.90;;;;;;5062616;28;20064;-74
2021/08/22 08:42:24;;;;;;;21.08;18.98;;;20.60;99.90;;;;;;5082267;28;20036;-75
2021/08/22 08:44:53;;;;;;;15.55;13.93;;;20.50;99.90;;;;;;5082156;28;20016;-75
2021/08/22 08:47:22;;;;;;;17.02;15.32;;;20.60;99.90;;;;;;5079677;28;20020;-75
2021/08/22 08:50:07;;;;;;;21.92;18.83;;;20.80;99.90;;;;;;5045374;28;20047;-75
2021/08/22 08:52:58;;;;;;;20.83;17.42;;;20.90;99.90;;;;;;5084241;28;20082;-75
2021/08/22 08:55:30;;;;;;;24.13;18.85;;;20.90;99.90;;;;;;5084508;28;20040;-75
2021/08/22 08:57:57;;;;;;;;;;;20.90;99.90;;;;;;5063180;28;20399;-76
2021/08/22 09:00:43;;;;;;;19.05;17.00;;;20.90;99.90;;;;;;5085647;28;19919;-75
2021/08/22 09:03:14;;;;;;;16.13;14.35;;;21.00;99.90;;;;;;5086047;28;20032;-75
2021/08/22 09:06:11;;;;;;;18.10;16.40;;;21.10;99.90;;;;;;5084278;28;20391;-75
2021/08/22 09:09:14;;;;;;;20.02;16.75;;;21.20;99.90;;;;;;5066677;28;20142;-76
2021/08/22 09:12:03;;;;;;;17.05;15.15;;;21.20;99.90;;;;;;5085265;28;20604;-75
2021/08/22 09:14:58;;;;;;;19.73;17.67;;;21.20;99.90;;;;;;5067190;28;20522;-76
2021/08/22 09:18:01;;;;;;;17.48;15.68;;;21.10;99.90;;;;;;5065320;28;20414;-76
2021/08/22 09:21:16;;;;;;;17.92;16.23;;;21.20;99.90;;;;;;5066468;28;20043;-76
2021/08/22 09:24:25;;;;;;;18.08;16.27;;;21.40;99.90;;;;;;4995636;28;20043;-75
2021/08/22 09:27:16;;;;;;;17.52;15.90;;;21.70;99.90;;;;;;5053749;28;20035;-78
2021/08/22 09:30:20;;;;;;;16.45;14.75;;;22.00;99.90;;;;;;5065225;28;20044;-76
2021/08/22 09:33:24;;;;;;;16.60;14.98;;;22.20;99.90;;;;;;5083113;28;20067;-75
2021/08/22 09:36:02;;;;;;;16.88;15.18;;;22.40;99.90;;;;;;5047570;28;20409;-76
2021/08/22 09:39:08;;;;;;;17.35;14.77;;;22.60;99.90;;;;;;5063986;28;20054;-75
2021/08/22 09:42:13;;;;;;;17.92;16.13;;;22.60;99.90;;;;;;5029192;28;20043;-79
2021/08/22 09:45:17;;;;;;;15.05;13.55;;;22.40;99.90;;;;;;5084513;28;20028;-81
2021/08/22 09:48:12;;;;;;;17.30;15.50;;;22.30;99.90;;;;;;5078707;28;20035;-80
2021/08/22 09:51:16;;;;;;;14.45;13.02;;;22.50;99.90;;;;;;5036738;28;20051;-80
2021/08/22 09:54:24;;;;;;;14.88;13.38;;;22.50;99.90;;;;;;5066071;28;20115;-79
2021/08/22 09:57:12;;;;;;;14.20;12.70;;;22.40;99.90;;;;;;4980761;28;20038;-80
2021/08/22 10:00:16;;;;;;;14.45;12.95;;;22.20;99.90;;;;;;4966178;28;20050;-80
2021/08/22 10:02:54;;;;;;;13.25;12.00;;;22.10;99.90;;;;;;5069266;28;20044;-80
2021/08/22 10:05:36;;;;;;;11.02;10.02;;;21.90;99.90;;;;;;5084154;28;20020;-80
2021/08/22 10:08:36;;;;;;;15.55;13.30;;;21.90;99.90;;;;;;5066619;28;20043;-80
2021/08/22 10:11:04;;;;;;;13.70;12.27;;;21.90;99.90;;;;;;5067990;28;20055;-81
2021/08/22 10:13:31;;;;;;;13.30;12.00;;;21.80;99.90;;;;;;5086109;28;20040;-80
2021/08/22 10:15:58;;;;;;;15.57;13.25;;;21.80;99.90;;;;;;5085656;28;20043;-80
2021/08/22 10:18:25;;;;;;;12.27;10.13;;;22.10;99.90;;;;;;5049361;28;20529;-80
2021/08/22 10:20:59;;;;;;;11.32;9.55;;;22.20;99.90;;;;;;5068139;28;20036;-80
2021/08/22 10:23:32;;;;;;;13.35;11.07;;;22.40;99.90;;;;;;5085557;28;20367;-79
2021/08/22 10:25:59;;;;;;;10.65;9.57;;;22.30;99.90;;;;;;5067841;28;20032;-84
2021/08/22 10:28:44;;;;;;;11.20;10.05;;;22.20;99.90;;;;;;5063165;28;20040;-79
2021/08/22 10:31:14;;;;;;;12.20;10.98;;;22.10;99.90;;;;;;5065358;28;20044;-77
2021/08/22 10:34:12;;;;;;;13.43;12.23;;;22.00;99.90;;;;;;5080434;28;20028;-77
2021/08/22 10:36:38;;;;;;;13.45;12.15;;;21.90;99.90;;;;;;5063700;28;20056;-78
2021/08/22 10:39:23;;;;;;;12.98;11.88;;;21.80;99.90;;;;;;5081089;28;20479;-77
2021/08/22 10:41:51;;;;;;;14.60;13.30;;;21.80;99.90;;;;;;5083591;28;20479;-76
2021/08/22 10:44:36;;;;;;;13.60;12.20;;;21.70;99.90;;;;;;5082557;28;20036;-77
2021/08/22 10:47:09;;;;;;;13.70;12.35;;;21.60;99.90;;;;;;5082172;28;20038;-77
2021/08/22 10:49:53;;;;;;;14.43;13.02;;;21.50;99.90;;;;;;5063652;28;20704;-77
2021/08/22 10:52:23;;;;;;;13.68;12.38;;;21.50;99.90;;;;;;5082813;28;20036;-77
2021/08/22 10:55:15;;;;;;;15.30;13.55;;;21.50;99.90;;;;;;5065597;28;20391;-77
2021/08/22 10:57:45;;;;;;;15.43;13.93;;;21.50;99.90;;;;;;5060568;28;20418;-76
2021/08/22 11:00:35;;;;;;;14.80;13.40;;;21.50;99.90;;;;;;5082201;28;20039;-76
2021/08/22 11:03:04;;;;;;;13.18;11.93;;;21.50;99.90;;;;;;5075193;28;20036;-77
2021/08/22 11:05:35;;;;;;;12.27;10.98;;;21.60;99.90;;;;;;5080911;28;20028;-76
2021/08/22 11:08:20;;;;;;;12.18;10.88;;;21.60;99.90;;;;;;5078495;28;20491;-76
2021/08/22 11:11:07;;;;;;;11.90;10.77;;;21.70;99.90;;;;;;5063066;28;20043;-77
2021/08/22 11:13:37;;;;;;;11.13;10.13;;;21.80;99.90;;;;;;5057088;28;20028;-76
2021/08/22 11:16:08;;;;;;;13.00;11.70;;;21.90;99.90;;;;;;5062266;28;20042;-76
2021/08/22 11:18:36;;;;;;;9.93;9.03;;;22.00;99.90;;;;;;5077440;28;20036;-76
2021/08/22 11:21:03;;;;;;;11.15;10.15;;;22.20;99.90;;;;;;5081402;28;20387;-76
2021/08/22 11:23:30;;;;;;;11.13;10.02;;;22.40;99.90;;;;;;5080350;28;20036;-76
2021/08/22 11:26:08;;;;;;;11.05;10.05;;;22.50;99.90;;;;;;5063969;28;20471;-77
2021/08/22 11:28:36;;;;;;;11.48;10.18;;;22.60;99.90;;;;;;5076866;28;20029;-76
2021/08/22 11:31:14;;;;;;;11.23;10.13;;;22.70;99.90;;;;;;5082108;28;20036;-75
2021/08/22 11:33:42;;;;;;;12.82;11.52;;;23.00;99.90;;;;;;5063046;28;20131;-77
2021/08/22 11:36:08;;;;;;;11.70;10.60;;;23.50;99.90;;;;;;5079850;28;20499;-76
2021/08/22 11:38:35;;;;;;;10.95;9.85;;;23.90;99.90;;;;;;5077621;28;20564;-77
2021/08/22 11:41:03;;;;;;;11.85;10.60;;;23.90;99.90;;;;;;5063514;28;20036;-77
2021/08/22 11:43:30;;;;;;;10.13;9.30;;;23.90;99.90;;;;;;5080132;28;20032;-76
2021/08/22 11:45:57;;;;;;;9.85;8.85;;;24.00;99.90;;;;;;5079347;28;20036;-76
2021/08/22 11:48:24;;;;;;;10.88;9.88;;;24.50;99.90;;;;;;5075358;28;20028;-76
2021/08/22 11:50:59;;;;;;;11.40;10.40;;;25.00;99.90;;;;;;5079086;28;20509;-77
2021/08/22 11:53:30;;;;;;;10.98;9.90;;;25.70;99.90;;;;;;5079833;28;20382;-76
2021/08/22 11:55:57;;;;;;;9.17;8.27;;;26.10;99.90;;;;;;5077820;28;20036;-75
2021/08/22 11:58:23;;;;;;;8.68;7.75;;;26.20;99.10;;;;;;5075418;28;20043;-75
2021/08/22 12:00:57;;;;;;;6.95;6.38;;;26.70;98.10;;;;;;5040784;28;20515;-75
2021/08/22 12:03:25;;;;;;;6.38;5.78;;;27.10;97.00;;;;;;5076330;28;20033;-76
2021/08/22 12:06:00;;;;;;;6.97;6.38;;;27.20;96.20;;;;;;5081273;28;20054;-76
2021/08/22 12:08:31;;;;;;;7.10;6.53;;;27.30;95.40;;;;;;5077686;28;20023;-77
2021/08/22 12:11:31;;;;;;;9.40;8.70;;;27.30;95.30;;;;;;5060269;28;20063;-76
2021/08/22 12:14:14;;;;;;;8.25;7.38;;;27.20;94.20;;;;;;5062390;28;20028;-76
2021/08/22 12:16:56;;;;;;;8.00;7.18;;;26.90;94.70;;;;;;5061676;28;20032;-76
2021/08/22 12:19:28;;;;;;;7.93;7.22;;;26.70;94.00;;;;;;5078343;28;20051;-77
2021/08/22 12:21:56;;;;;;;9.32;8.43;;;26.60;94.30;;;;;;5078535;28;20039;-77
2021/08/22 12:24:28;;;;;;;8.68;7.88;;;26.30;94.20;;;;;;5040778;28;20526;-77
2021/08/22 12:26:56;;;;;;;7.38;6.75;;;26.20;94.50;;;;;;5078961;28;20387;-77
2021/08/22 12:29:29;;;;;;;7.25;6.65;;;26.40;94.60;;;;;;5080824;28;20024;-76
2021/08/22 12:32:10;;;;;;;8.60;7.80;;;26.30;94.50;;;;;;5065576;28;20107;-78
2021/08/22 12:34:37;;;;;;;7.45;6.85;;;26.20;94.60;;;;;;5068243;28;20040;-78
2021/08/22 12:37:22;;;;;;;7.85;7.15;;;26.50;94.60;;;;;;5066946;28;20028;-78
2021/08/22 12:39:59;;;;;;;7.75;6.65;;;27.00;93.90;;;;;;5066795;28;20066;-79
2021/08/22 12:42:26;;;;;;;7.90;7.07;;;27.00;93.40;;;;;;5083745;28;20032;-79
2021/08/22 12:44:54;;;;;;;40.40;11.13;;;26.80;92.90;;;;;;5068852;28;20028;-78
2021/08/22 12:47:21;;;;;;;9.15;7.10;;;26.40;92.70;;;;;;5084396;28;20041;-78